Decoded Metar for PHNY (LANAI in HI, USA LANAI ISL.) (IATA:LNY) | Meteo·Mobile Aviation Weather
aviador You're here:

PHNY Decoded Metar

LANAI in HI, USA LANAI ISL.
Report Time2018-12-17 13:32:00
UTC Time2018-12-17 14:01:04
Flight Rules vfr VFR
Wind060° at 03 kt
W.Decomp.*RWY 03: 2.8 kt HW 1.0 kt RCW
W.Rank060° ranks 4
Current wind is below 060° avg. (9.4)
Visibility9999 m
Phenomena:N/A
Clouds:Scattered 028 Hf
Expected CloudBase > 1,200 ft AGL from Temp-Dew spread
CeilingNone
Temp17°C (ISA +5)
Dew Point14°C (83% RH)
QNH1021 hPa
Density Alt1,798 ft
Elevation1,309 ft
Report Wrong Elevation
Raw Report
PHNY 171332Z AUTO 06003KT 10SM SCT028 17/14 A3016 RMK AO2=

Extra information for PHNY:More info

Metar Taf Metar & Taf Last 4 Metars F.Rules Stats Wind Profile Meteogram Temp Stats Airport Information Weather charts Add Link Nearby VenuesMetar ALERT Operation Metar Decoded Social comments